sensor_id;sensor_type;location;lat;lon;timestamp;P1;durP1;ratioP1;P2;durP2;ratioP2
14923;SDS011;7554;43.600;1.480;2023-06-22T00:01:16;6.40;;;3.63;;
14923;SDS011;7554;43.600;1.480;2023-06-22T00:03:44;6.77;;;3.50;;
14923;SDS011;7554;43.600;1.480;2023-06-22T00:06:11;5.90;;;3.17;;
14923;SDS011;7554;43.600;1.480;2023-06-22T00:08:40;9.67;;;3.97;;
14923;SDS011;7554;43.600;1.480;2023-06-22T00:11:08;5.00;;;3.37;;
14923;SDS011;7554;43.600;1.480;2023-06-22T00:13:35;5.33;;;3.37;;
14923;SDS011;7554;43.600;1.480;2023-06-22T00:16:03;5.03;;;3.33;;
14923;SDS011;7554;43.600;1.480;2023-06-22T00:18:30;6.27;;;3.77;;
14923;SDS011;7554;43.600;1.480;2023-06-22T00:20:58;4.97;;;3.20;;
14923;SDS011;7554;43.600;1.480;2023-06-22T00:23:25;5.10;;;3.10;;
14923;SDS011;7554;43.600;1.480;2023-06-22T00:25:55;6.13;;;3.37;;
14923;SDS011;7554;43.600;1.480;2023-06-22T00:28:22;5.53;;;3.60;;
14923;SDS011;7554;43.600;1.480;2023-06-22T00:30:49;8.50;;;3.43;;
14923;SDS011;7554;43.600;1.480;2023-06-22T00:33:17;4.83;;;3.63;;
14923;SDS011;7554;43.600;1.480;2023-06-22T00:35:44;9.20;;;3.90;;
14923;SDS011;7554;43.600;1.480;2023-06-22T00:38:11;6.43;;;4.00;;
14923;SDS011;7554;43.600;1.480;2023-06-22T00:40:39;7.10;;;3.60;;
14923;SDS011;7554;43.600;1.480;2023-06-22T00:43:08;6.67;;;3.87;;
14923;SDS011;7554;43.600;1.480;2023-06-22T00:45:35;5.00;;;3.80;;
14923;SDS011;7554;43.600;1.480;2023-06-22T00:48:02;8.40;;;3.90;;
14923;SDS011;7554;43.600;1.480;2023-06-22T00:50:31;6.00;;;4.13;;
14923;SDS011;7554;43.600;1.480;2023-06-22T00:53:00;8.17;;;3.70;;
14923;SDS011;7554;43.600;1.480;2023-06-22T00:55:33;8.80;;;4.03;;
14923;SDS011;7554;43.600;1.480;2023-06-22T00:58:04;5.50;;;3.70;;
14923;SDS011;7554;43.600;1.480;2023-06-22T01:00:36;8.70;;;3.97;;
14923;SDS011;7554;43.600;1.480;2023-06-22T01:03:05;5.57;;;3.83;;
14923;SDS011;7554;43.600;1.480;2023-06-22T01:05:34;7.90;;;3.70;;
14923;SDS011;7554;43.600;1.480;2023-06-22T01:08:06;8.63;;;4.53;;
14923;SDS011;7554;43.600;1.480;2023-06-22T01:10:46;8.87;;;4.60;;
14923;SDS011;7554;43.600;1.480;2023-06-22T01:13:20;5.97;;;3.67;;
14923;SDS011;7554;43.600;1.480;2023-06-22T01:15:57;5.97;;;4.20;;
14923;SDS011;7554;43.600;1.480;2023-06-22T01:18:30;7.83;;;4.30;;
14923;SDS011;7554;43.600;1.480;2023-06-22T01:20:58;7.30;;;4.53;;
14923;SDS011;7554;43.600;1.480;2023-06-22T01:23:29;7.83;;;4.23;;
14923;SDS011;7554;43.600;1.480;2023-06-22T01:26:05;9.67;;;4.80;;
14923;SDS011;7554;43.600;1.480;2023-06-22T01:28:45;7.23;;;4.10;;
14923;SDS011;7554;43.600;1.480;2023-06-22T01:31:15;7.60;;;4.10;;
14923;SDS011;7554;43.600;1.480;2023-06-22T01:33:45;5.57;;;4.13;;
14923;SDS011;7554;43.600;1.480;2023-06-22T01:36:16;6.00;;;3.30;;
14923;SDS011;7554;43.600;1.480;2023-06-22T01:38:44;6.33;;;2.77;;
14923;SDS011;7554;43.600;1.480;2023-06-22T01:41:12;5.50;;;2.87;;
14923;SDS011;7554;43.600;1.480;2023-06-22T01:43:41;5.43;;;2.80;;
14923;SDS011;7554;43.600;1.480;2023-06-22T01:46:10;8.43;;;3.37;;
14923;SDS011;7554;43.600;1.480;2023-06-22T01:48:38;8.97;;;3.93;;
14923;SDS011;7554;43.600;1.480;2023-06-22T01:51:06;16.93;;;5.37;;
14923;SDS011;7554;43.600;1.480;2023-06-22T01:53:34;6.50;;;4.30;;
14923;SDS011;7554;43.600;1.480;2023-06-22T01:56:01;9.73;;;3.77;;
14923;SDS011;7554;43.600;1.480;2023-06-22T01:58:29;14.77;;;13.37;;
14923;SDS011;7554;43.600;1.480;2023-06-22T02:00:58;5.27;;;4.07;;
14923;SDS011;7554;43.600;1.480;2023-06-22T02:03:37;11.93;;;5.57;;
14923;SDS011;7554;43.600;1.480;2023-06-22T02:06:08;4.53;;;2.90;;
14923;SDS011;7554;43.600;1.480;2023-06-22T02:08:41;4.97;;;2.87;;
14923;SDS011;7554;43.600;1.480;2023-06-22T02:11:14;3.10;;;2.60;;
14923;SDS011;7554;43.600;1.480;2023-06-22T02:13:43;4.80;;;2.43;;
14923;SDS011;7554;43.600;1.480;2023-06-22T02:16:12;7.90;;;3.33;;
14923;SDS011;7554;43.600;1.480;2023-06-22T02:18:46;4.20;;;2.17;;
14923;SDS011;7554;43.600;1.480;2023-06-22T02:21:16;4.30;;;1.97;;
14923;SDS011;7554;43.600;1.480;2023-06-22T02:23:43;2.73;;;1.90;;
14923;SDS011;7554;43.600;1.480;2023-06-22T02:26:11;7.20;;;2.00;;
14923;SDS011;7554;43.600;1.480;2023-06-22T02:28:39;5.77;;;2.13;;
14923;SDS011;7554;43.600;1.480;2023-06-22T02:31:06;2.93;;;2.00;;
14923;SDS011;7554;43.600;1.480;2023-06-22T02:33:34;5.67;;;2.07;;
14923;SDS011;7554;43.600;1.480;2023-06-22T02:36:03;3.40;;;1.80;;
14923;SDS011;7554;43.600;1.480;2023-06-22T02:38:34;5.97;;;2.30;;
14923;SDS011;7554;43.600;1.480;2023-06-22T02:41:01;4.00;;;2.00;;
14923;SDS011;7554;43.600;1.480;2023-06-22T02:43:29;4.00;;;1.93;;
14923;SDS011;7554;43.600;1.480;2023-06-22T02:45:56;2.93;;;1.60;;
14923;SDS011;7554;43.600;1.480;2023-06-22T02:48:23;6.97;;;1.90;;
14923;SDS011;7554;43.600;1.480;2023-06-22T02:50:51;3.93;;;1.80;;
14923;SDS011;7554;43.600;1.480;2023-06-22T02:53:20;6.03;;;1.90;;
14923;SDS011;7554;43.600;1.480;2023-06-22T02:55:47;3.70;;;1.80;;
14923;SDS011;7554;43.600;1.480;2023-06-22T02:58:14;8.83;;;2.40;;
14923;SDS011;7554;43.600;1.480;2023-06-22T03:00:41;6.97;;;2.63;;
14923;SDS011;7554;43.600;1.480;2023-06-22T03:03:09;4.60;;;2.17;;
14923;SDS011;7554;43.600;1.480;2023-06-22T03:05:36;7.60;;;2.20;;
14923;SDS011;7554;43.600;1.480;2023-06-22T03:08:05;4.27;;;1.87;;
14923;SDS011;7554;43.600;1.480;2023-06-22T03:10:34;4.23;;;1.90;;
14923;SDS011;7554;43.600;1.480;2023-06-22T03:13:01;7.33;;;2.17;;
14923;SDS011;7554;43.600;1.480;2023-06-22T03:15:29;9.70;;;2.53;;
14923;SDS011;7554;43.600;1.480;2023-06-22T03:17:56;4.40;;;1.83;;
14923;SDS011;7554;43.600;1.480;2023-06-22T03:20:24;4.53;;;2.23;;
14923;SDS011;7554;43.600;1.480;2023-06-22T03:22:52;5.60;;;2.00;;
14923;SDS011;7554;43.600;1.480;2023-06-22T03:25:19;6.40;;;2.13;;
14923;SDS011;7554;43.600;1.480;2023-06-22T03:27:48;5.17;;;2.00;;
14923;SDS011;7554;43.600;1.480;2023-06-22T03:30:15;6.07;;;2.20;;
14923;SDS011;7554;43.600;1.480;2023-06-22T03:32:42;4.80;;;1.93;;
14923;SDS011;7554;43.600;1.480;2023-06-22T03:35:11;4.67;;;1.80;;
14923;SDS011;7554;43.600;1.480;2023-06-22T03:37:39;6.47;;;2.40;;
14923;SDS011;7554;43.600;1.480;2023-06-22T03:40:07;9.33;;;2.50;;
14923;SDS011;7554;43.600;1.480;2023-06-22T03:42:35;4.93;;;2.33;;
14923;SDS011;7554;43.600;1.480;2023-06-22T03:45:04;7.73;;;2.50;;
14923;SDS011;7554;43.600;1.480;2023-06-22T03:47:32;12.73;;;2.40;;
14923;SDS011;7554;43.600;1.480;2023-06-22T03:50:00;7.80;;;2.50;;
14923;SDS011;7554;43.600;1.480;2023-06-22T03:52:28;6.40;;;2.73;;
14923;SDS011;7554;43.600;1.480;2023-06-22T03:54:56;4.83;;;3.10;;
14923;SDS011;7554;43.600;1.480;2023-06-22T03:57:23;9.83;;;3.30;;
14923;SDS011;7554;43.600;1.480;2023-06-22T03:59:50;4.60;;;2.93;;
14923;SDS011;7554;43.600;1.480;2023-06-22T04:02:19;6.83;;;3.30;;
14923;SDS011;7554;43.600;1.480;2023-06-22T04:04:46;6.07;;;3.50;;
14923;SDS011;7554;43.600;1.480;2023-06-22T04:07:14;6.30;;;4.13;;
14923;SDS011;7554;43.600;1.480;2023-06-22T04:09:41;6.70;;;3.03;;
14923;SDS011;7554;43.600;1.480;2023-06-22T04:12:08;6.33;;;3.50;;
14923;SDS011;7554;43.600;1.480;2023-06-22T04:14:36;5.27;;;3.60;;
14923;SDS011;7554;43.600;1.480;2023-06-22T04:17:03;5.73;;;3.50;;
14923;SDS011;7554;43.600;1.480;2023-06-22T04:19:32;6.83;;;3.73;;
14923;SDS011;7554;43.600;1.480;2023-06-22T04:22:00;11.30;;;4.50;;
14923;SDS011;7554;43.600;1.480;2023-06-22T04:24:27;7.40;;;4.00;;
14923;SDS011;7554;43.600;1.480;2023-06-22T04:26:54;9.03;;;3.80;;
14923;SDS011;7554;43.600;1.480;2023-06-22T04:29:21;7.00;;;4.20;;
14923;SDS011;7554;43.600;1.480;2023-06-22T04:31:54;9.00;;;4.27;;
14923;SDS011;7554;43.600;1.480;2023-06-22T04:34:23;8.23;;;3.80;;
14923;SDS011;7554;43.600;1.480;2023-06-22T04:36:53;6.50;;;3.57;;
14923;SDS011;7554;43.600;1.480;2023-06-22T04:39:21;6.67;;;3.83;;
14923;SDS011;7554;43.600;1.480;2023-06-22T04:41:49;9.27;;;4.03;;
14923;SDS011;7554;43.600;1.480;2023-06-22T04:44:17;8.30;;;4.20;;
14923;SDS011;7554;43.600;1.480;2023-06-22T04:46:49;6.10;;;4.03;;
14923;SDS011;7554;43.600;1.480;2023-06-22T04:49:19;6.17;;;4.13;;
14923;SDS011;7554;43.600;1.480;2023-06-22T04:51:47;6.07;;;4.03;;
14923;SDS011;7554;43.600;1.480;2023-06-22T04:54:18;11.70;;;4.10;;
14923;SDS011;7554;43.600;1.480;2023-06-22T04:56:45;8.83;;;4.13;;
14923;SDS011;7554;43.600;1.480;2023-06-22T04:59:13;7.23;;;3.80;;
14923;SDS011;7554;43.600;1.480;2023-06-22T05:01:43;13.83;;;4.40;;
14923;SDS011;7554;43.600;1.480;2023-06-22T05:04:11;6.57;;;4.33;;
14923;SDS011;7554;43.600;1.480;2023-06-22T05:06:38;8.17;;;4.77;;
14923;SDS011;7554;43.600;1.480;2023-06-22T05:09:05;7.40;;;4.40;;
14923;SDS011;7554;43.600;1.480;2023-06-22T05:11:34;7.57;;;5.00;;
14923;SDS011;7554;43.600;1.480;2023-06-22T05:14:02;6.60;;;4.73;;
14923;SDS011;7554;43.600;1.480;2023-06-22T05:16:29;10.63;;;5.10;;
14923;SDS011;7554;43.600;1.480;2023-06-22T05:18:56;7.17;;;4.80;;
14923;SDS011;7554;43.600;1.480;2023-06-22T05:21:25;8.40;;;4.63;;
14923;SDS011;7554;43.600;1.480;2023-06-22T05:23:53;7.53;;;4.53;;
14923;SDS011;7554;43.600;1.480;2023-06-22T05:26:21;8.07;;;5.20;;
14923;SDS011;7554;43.600;1.480;2023-06-22T05:28:50;6.47;;;5.03;;
14923;SDS011;7554;43.600;1.480;2023-06-22T05:31:17;7.97;;;5.40;;
14923;SDS011;7554;43.600;1.480;2023-06-22T05:33:45;6.10;;;5.07;;
14923;SDS011;7554;43.600;1.480;2023-06-22T05:36:14;9.00;;;5.27;;
14923;SDS011;7554;43.600;1.480;2023-06-22T05:38:42;7.73;;;5.43;;
14923;SDS011;7554;43.600;1.480;2023-06-22T05:41:09;10.00;;;5.67;;
14923;SDS011;7554;43.600;1.480;2023-06-22T05:43:36;10.87;;;5.70;;
14923;SDS011;7554;43.600;1.480;2023-06-22T05:46:06;8.77;;;5.60;;
14923;SDS011;7554;43.600;1.480;2023-06-22T05:48:33;7.33;;;5.63;;
14923;SDS011;7554;43.600;1.480;2023-06-22T05:51:01;10.93;;;6.10;;
14923;SDS011;7554;43.600;1.480;2023-06-22T05:53:28;10.50;;;5.90;;
14923;SDS011;7554;43.600;1.480;2023-06-22T05:55:56;6.10;;;5.50;;
14923;SDS011;7554;43.600;1.480;2023-06-22T05:58:24;8.57;;;5.90;;
14923;SDS011;7554;43.600;1.480;2023-06-22T06:00:51;8.20;;;5.97;;
14923;SDS011;7554;43.600;1.480;2023-06-22T06:03:20;7.73;;;6.27;;
14923;SDS011;7554;43.600;1.480;2023-06-22T06:05:48;9.60;;;5.93;;
14923;SDS011;7554;43.600;1.480;2023-06-22T06:08:15;8.83;;;6.23;;
14923;SDS011;7554;43.600;1.480;2023-06-22T06:10:42;14.17;;;6.03;;
14923;SDS011;7554;43.600;1.480;2023-06-22T06:13:10;9.80;;;6.37;;
14923;SDS011;7554;43.600;1.480;2023-06-22T06:15:37;7.93;;;6.30;;
14923;SDS011;7554;43.600;1.480;2023-06-22T06:18:05;11.70;;;7.00;;
14923;SDS011;7554;43.600;1.480;2023-06-22T06:20:33;10.23;;;6.60;;
14923;SDS011;7554;43.600;1.480;2023-06-22T06:23:01;8.43;;;6.37;;
14923;SDS011;7554;43.600;1.480;2023-06-22T06:25:28;9.43;;;6.53;;
14923;SDS011;7554;43.600;1.480;2023-06-22T06:27:56;11.93;;;6.80;;
14923;SDS011;7554;43.600;1.480;2023-06-22T06:30:23;9.30;;;6.63;;
14923;SDS011;7554;43.600;1.480;2023-06-22T06:32:51;10.00;;;6.83;;
14923;SDS011;7554;43.600;1.480;2023-06-22T06:35:18;10.30;;;6.90;;
14923;SDS011;7554;43.600;1.480;2023-06-22T06:37:48;14.60;;;7.57;;
14923;SDS011;7554;43.600;1.480;2023-06-22T06:40:17;10.60;;;6.40;;
14923;SDS011;7554;43.600;1.480;2023-06-22T06:42:45;10.97;;;7.00;;
14923;SDS011;7554;43.600;1.480;2023-06-22T06:45:14;13.70;;;6.13;;
14923;SDS011;7554;43.600;1.480;2023-06-22T06:47:43;8.00;;;6.17;;
14923;SDS011;7554;43.600;1.480;2023-06-22T06:50:10;10.00;;;6.77;;
14923;SDS011;7554;43.600;1.480;2023-06-22T06:52:38;9.20;;;5.30;;
14923;SDS011;7554;43.600;1.480;2023-06-22T06:55:09;8.23;;;5.40;;
14923;SDS011;7554;43.600;1.480;2023-06-22T06:57:37;11.87;;;6.13;;
14923;SDS011;7554;43.600;1.480;2023-06-22T07:00:05;13.93;;;6.80;;
14923;SDS011;7554;43.600;1.480;2023-06-22T07:02:37;8.17;;;5.63;;
14923;SDS011;7554;43.600;1.480;2023-06-22T07:05:05;8.57;;;5.80;;
14923;SDS011;7554;43.600;1.480;2023-06-22T07:07:33;12.00;;;6.40;;
14923;SDS011;7554;43.600;1.480;2023-06-22T07:10:00;8.60;;;6.67;;
14923;SDS011;7554;43.600;1.480;2023-06-22T07:12:29;11.23;;;7.20;;
14923;SDS011;7554;43.600;1.480;2023-06-22T07:15:00;7.20;;;5.90;;
14923;SDS011;7554;43.600;1.480;2023-06-22T07:17:29;11.03;;;7.00;;
14923;SDS011;7554;43.600;1.480;2023-06-22T07:19:56;12.37;;;6.17;;
14923;SDS011;7554;43.600;1.480;2023-06-22T07:22:23;11.80;;;5.50;;
14923;SDS011;7554;43.600;1.480;2023-06-22T07:24:51;8.13;;;5.43;;
14923;SDS011;7554;43.600;1.480;2023-06-22T07:27:18;10.57;;;4.67;;
14923;SDS011;7554;43.600;1.480;2023-06-22T07:29:47;7.57;;;4.77;;
14923;SDS011;7554;43.600;1.480;2023-06-22T07:32:15;9.20;;;4.50;;
14923;SDS011;7554;43.600;1.480;2023-06-22T07:34:43;6.43;;;4.53;;
14923;SDS011;7554;43.600;1.480;2023-06-22T07:37:10;15.43;;;4.93;;
14923;SDS011;7554;43.600;1.480;2023-06-22T07:39:37;12.87;;;4.53;;
14923;SDS011;7554;43.600;1.480;2023-06-22T07:42:05;7.63;;;4.57;;
14923;SDS011;7554;43.600;1.480;2023-06-22T07:44:32;9.27;;;4.53;;
14923;SDS011;7554;43.600;1.480;2023-06-22T07:47:01;5.07;;;3.77;;
14923;SDS011;7554;43.600;1.480;2023-06-22T07:49:28;9.07;;;4.20;;
14923;SDS011;7554;43.600;1.480;2023-06-22T07:51:56;4.23;;;3.53;;
14923;SDS011;7554;43.600;1.480;2023-06-22T07:54:23;6.00;;;3.30;;
14923;SDS011;7554;43.600;1.480;2023-06-22T07:56:50;7.70;;;3.27;;
14923;SDS011;7554;43.600;1.480;2023-06-22T07:59:18;7.07;;;3.13;;
14923;SDS011;7554;43.600;1.480;2023-06-22T08:01:45;8.73;;;2.93;;
14923;SDS011;7554;43.600;1.480;2023-06-22T08:04:15;6.00;;;3.10;;
14923;SDS011;7554;43.600;1.480;2023-06-22T08:06:43;6.53;;;2.70;;
14923;SDS011;7554;43.600;1.480;2023-06-22T08:09:10;3.50;;;2.80;;
14923;SDS011;7554;43.600;1.480;2023-06-22T08:11:37;4.80;;;2.87;;
14923;SDS011;7554;43.600;1.480;2023-06-22T08:14:05;3.70;;;2.87;;
14923;SDS011;7554;43.600;1.480;2023-06-22T08:16:32;5.90;;;3.20;;
14923;SDS011;7554;43.600;1.480;2023-06-22T08:18:59;6.37;;;4.13;;
14923;SDS011;7554;43.600;1.480;2023-06-22T08:21:28;6.33;;;3.17;;
14923;SDS011;7554;43.600;1.480;2023-06-22T08:23:55;9.27;;;4.07;;
14923;SDS011;7554;43.600;1.480;2023-06-22T08:26:22;9.10;;;4.23;;
14923;SDS011;7554;43.600;1.480;2023-06-22T08:28:50;6.33;;;3.83;;
14923;SDS011;7554;43.600;1.480;2023-06-22T08:31:17;6.27;;;3.97;;
14923;SDS011;7554;43.600;1.480;2023-06-22T08:33:45;8.10;;;4.13;;
14923;SDS011;7554;43.600;1.480;2023-06-22T08:36:12;5.20;;;3.73;;
14923;SDS011;7554;43.600;1.480;2023-06-22T08:38:41;5.13;;;3.63;;
14923;SDS011;7554;43.600;1.480;2023-06-22T08:41:08;8.97;;;4.10;;
14923;SDS011;7554;43.600;1.480;2023-06-22T08:43:35;4.80;;;3.30;;
14923;SDS011;7554;43.600;1.480;2023-06-22T08:46:03;5.47;;;3.90;;
14923;SDS011;7554;43.600;1.480;2023-06-22T08:48:30;26.43;;;6.53;;
14923;SDS011;7554;43.600;1.480;2023-06-22T08:50:57;7.53;;;3.37;;
14923;SDS011;7554;43.600;1.480;2023-06-22T08:53:24;8.47;;;3.50;;
14923;SDS011;7554;43.600;1.480;2023-06-22T08:55:53;4.37;;;3.17;;
14923;SDS011;7554;43.600;1.480;2023-06-22T08:58:20;4.17;;;2.90;;
14923;SDS011;7554;43.600;1.480;2023-06-22T09:00:49;2.97;;;2.50;;
14923;SDS011;7554;43.600;1.480;2023-06-22T09:03:16;8.00;;;3.37;;
14923;SDS011;7554;43.600;1.480;2023-06-22T09:05:45;6.50;;;3.10;;
14923;SDS011;7554;43.600;1.480;2023-06-22T09:08:13;5.50;;;3.30;;
14923;SDS011;7554;43.600;1.480;2023-06-22T09:10:40;6.77;;;3.50;;
14923;SDS011;7554;43.600;1.480;2023-06-22T09:13:09;3.77;;;3.00;;
14923;SDS011;7554;43.600;1.480;2023-06-22T09:15:36;12.57;;;5.07;;
14923;SDS011;7554;43.600;1.480;2023-06-22T09:18:03;5.93;;;3.43;;
14923;SDS011;7554;43.600;1.480;2023-06-22T09:20:31;5.10;;;3.23;;
14923;SDS011;7554;43.600;1.480;2023-06-22T09:22:58;7.93;;;3.33;;
14923;SDS011;7554;43.600;1.480;2023-06-22T09:25:26;4.97;;;3.77;;
14923;SDS011;7554;43.600;1.480;2023-06-22T09:27:53;5.53;;;3.77;;
14923;SDS011;7554;43.600;1.480;2023-06-22T09:30:22;6.43;;;3.77;;
14923;SDS011;7554;43.600;1.480;2023-06-22T09:32:50;8.57;;;3.87;;
14923;SDS011;7554;43.600;1.480;2023-06-22T09:35:17;7.73;;;3.90;;
14923;SDS011;7554;43.600;1.480;2023-06-22T09:37:45;4.27;;;3.83;;
14923;SDS011;7554;43.600;1.480;2023-06-22T09:40:12;6.03;;;3.60;;
14923;SDS011;7554;43.600;1.480;2023-06-22T09:42:42;6.43;;;4.07;;
14923;SDS011;7554;43.600;1.480;2023-06-22T09:45:09;5.40;;;3.60;;
14923;SDS011;7554;43.600;1.480;2023-06-22T09:47:38;5.87;;;3.80;;
14923;SDS011;7554;43.600;1.480;2023-06-22T09:50:06;5.03;;;3.50;;
14923;SDS011;7554;43.600;1.480;2023-06-22T09:52:34;5.23;;;4.00;;
14923;SDS011;7554;43.600;1.480;2023-06-22T09:55:01;7.40;;;4.03;;
14923;SDS011;7554;43.600;1.480;2023-06-22T09:57:29;6.33;;;4.00;;
14923;SDS011;7554;43.600;1.480;2023-06-22T09:59:56;4.73;;;3.33;;
14923;SDS011;7554;43.600;1.480;2023-06-22T10:02:24;5.40;;;3.67;;
14923;SDS011;7554;43.600;1.480;2023-06-22T10:04:52;6.80;;;3.97;;
14923;SDS011;7554;43.600;1.480;2023-06-22T10:07:20;4.80;;;3.53;;
14923;SDS011;7554;43.600;1.480;2023-06-22T10:09:47;8.10;;;3.80;;
14923;SDS011;7554;43.600;1.480;2023-06-22T10:12:14;6.50;;;3.60;;
14923;SDS011;7554;43.600;1.480;2023-06-22T10:14:41;5.47;;;3.50;;
14923;SDS011;7554;43.600;1.480;2023-06-22T10:17:09;5.27;;;3.50;;
14923;SDS011;7554;43.600;1.480;2023-06-22T10:19:36;10.67;;;3.73;;
14923;SDS011;7554;43.600;1.480;2023-06-22T10:22:05;5.73;;;3.53;;
14923;SDS011;7554;43.600;1.480;2023-06-22T10:24:32;6.73;;;3.57;;
14923;SDS011;7554;43.600;1.480;2023-06-22T10:27:00;4.32;;;3.40;;
14923;SDS011;7554;43.600;1.480;2023-06-22T10:29:27;48.87;;;5.00;;
14923;SDS011;7554;43.600;1.480;2023-06-22T10:31:54;12.10;;;3.90;;
14923;SDS011;7554;43.600;1.480;2023-06-22T10:34:22;3.67;;;2.90;;
14923;SDS011;7554;43.600;1.480;2023-06-22T10:36:49;4.82;;;3.50;;
14923;SDS011;7554;43.600;1.480;2023-06-22T10:39:18;7.45;;;3.38;;
14923;SDS011;7554;43.600;1.480;2023-06-22T10:41:45;5.78;;;3.17;;
14923;SDS011;7554;43.600;1.480;2023-06-22T10:44:12;5.90;;;3.28;;
14923;SDS011;7554;43.600;1.480;2023-06-22T10:46:39;6.68;;;3.33;;
14923;SDS011;7554;43.600;1.480;2023-06-22T10:49:07;4.10;;;3.50;;
14923;SDS011;7554;43.600;1.480;2023-06-22T10:51:34;7.47;;;2.90;;
14923;SDS011;7554;43.600;1.480;2023-06-22T10:54:01;5.50;;;3.60;;
14923;SDS011;7554;43.600;1.480;2023-06-22T10:56:31;7.70;;;3.30;;
14923;SDS011;7554;43.600;1.480;2023-06-22T10:58:59;8.35;;;3.72;;
14923;SDS011;7554;43.600;1.480;2023-06-22T11:01:27;4.55;;;2.92;;
14923;SDS011;7554;43.600;1.480;2023-06-22T11:03:56;6.38;;;3.72;;
14923;SDS011;7554;43.600;1.480;2023-06-22T11:06:23;5.90;;;3.05;;
14923;SDS011;7554;43.600;1.480;2023-06-22T11:08:51;5.35;;;2.80;;
14923;SDS011;7554;43.600;1.480;2023-06-22T11:11:18;12.98;;;3.60;;
14923;SDS011;7554;43.600;1.480;2023-06-22T11:13:47;5.80;;;3.60;;
14923;SDS011;7554;43.600;1.480;2023-06-22T11:16:14;3.78;;;2.70;;
14923;SDS011;7554;43.600;1.480;2023-06-22T11:18:41;5.50;;;3.22;;
14923;SDS011;7554;43.600;1.480;2023-06-22T11:21:09;3.70;;;2.95;;
14923;SDS011;7554;43.600;1.480;2023-06-22T11:23:36;5.40;;;3.80;;
14923;SDS011;7554;43.600;1.480;2023-06-22T11:26:03;5.43;;;2.75;;
14923;SDS011;7554;43.600;1.480;2023-06-22T11:28:30;3.78;;;3.20;;
14923;SDS011;7554;43.600;1.480;2023-06-22T11:30:59;4.75;;;2.95;;
14923;SDS011;7554;43.600;1.480;2023-06-22T11:33:27;4.38;;;2.72;;
14923;SDS011;7554;43.600;1.480;2023-06-22T11:35:54;6.13;;;3.17;;
14923;SDS011;7554;43.600;1.480;2023-06-22T11:38:22;6.03;;;2.95;;
14923;SDS011;7554;43.600;1.480;2023-06-22T11:40:49;4.43;;;3.05;;
14923;SDS011;7554;43.600;1.480;2023-06-22T11:43:16;4.78;;;3.00;;
14923;SDS011;7554;43.600;1.480;2023-06-22T11:45:44;9.98;;;5.20;;
14923;SDS011;7554;43.600;1.480;2023-06-22T11:48:12;13.30;;;6.25;;
14923;SDS011;7554;43.600;1.480;2023-06-22T11:50:40;10.05;;;5.97;;
14923;SDS011;7554;43.600;1.480;2023-06-22T11:53:07;7.97;;;4.85;;
14923;SDS011;7554;43.600;1.480;2023-06-22T11:55:34;5.63;;;4.88;;
14923;SDS011;7554;43.600;1.480;2023-06-22T11:58:02;8.50;;;5.63;;
14923;SDS011;7554;43.600;1.480;2023-06-22T12:00:30;6.50;;;3.63;;
14923;SDS011;7554;43.600;1.480;2023-06-22T12:02:58;4.65;;;3.42;;
14923;SDS011;7554;43.600;1.480;2023-06-22T12:05:26;7.20;;;3.63;;
14923;SDS011;7554;43.600;1.480;2023-06-22T12:07:54;3.35;;;3.00;;
14923;SDS011;7554;43.600;1.480;2023-06-22T12:10:21;4.70;;;3.10;;
14923;SDS011;7554;43.600;1.480;2023-06-22T12:12:50;3.10;;;2.80;;
14923;SDS011;7554;43.600;1.480;2023-06-22T12:15:17;4.22;;;2.70;;
14923;SDS011;7554;43.600;1.480;2023-06-22T12:17:44;4.43;;;3.08;;
14923;SDS011;7554;43.600;1.480;2023-06-22T12:20:13;3.20;;;2.88;;
14923;SDS011;7554;43.600;1.480;2023-06-22T12:22:42;5.75;;;3.20;;
14923;SDS011;7554;43.600;1.480;2023-06-22T12:25:10;4.63;;;3.30;;
14923;SDS011;7554;43.600;1.480;2023-06-22T12:27:38;4.30;;;2.70;;
14923;SDS011;7554;43.600;1.480;2023-06-22T12:30:05;8.30;;;3.40;;
14923;SDS011;7554;43.600;1.480;2023-06-22T12:32:33;3.78;;;2.88;;
14923;SDS011;7554;43.600;1.480;2023-06-22T12:35:00;4.40;;;3.20;;
14923;SDS011;7554;43.600;1.480;2023-06-22T12:37:28;4.85;;;3.00;;
14923;SDS011;7554;43.600;1.480;2023-06-22T12:39:58;3.28;;;2.35;;
14923;SDS011;7554;43.600;1.480;2023-06-22T12:42:25;4.28;;;2.78;;
14923;SDS011;7554;43.600;1.480;2023-06-22T12:44:53;4.32;;;2.63;;
14923;SDS011;7554;43.600;1.480;2023-06-22T12:47:20;4.85;;;2.67;;
14923;SDS011;7554;43.600;1.480;2023-06-22T12:49:47;5.15;;;2.38;;
14923;SDS011;7554;43.600;1.480;2023-06-22T12:52:15;3.08;;;2.72;;
14923;SDS011;7554;43.600;1.480;2023-06-22T12:54:42;3.42;;;2.17;;
14923;SDS011;7554;43.600;1.480;2023-06-22T12:57:11;4.25;;;2.97;;
14923;SDS011;7554;43.600;1.480;2023-06-22T12:59:38;4.72;;;2.78;;
14923;SDS011;7554;43.600;1.480;2023-06-22T13:02:05;4.57;;;2.40;;
14923;SDS011;7554;43.600;1.480;2023-06-22T13:04:33;4.28;;;2.28;;
14923;SDS011;7554;43.600;1.480;2023-06-22T13:07:00;4.90;;;2.40;;
14923;SDS011;7554;43.600;1.480;2023-06-22T13:09:27;6.38;;;2.75;;
14923;SDS011;7554;43.600;1.480;2023-06-22T13:11:55;2.85;;;2.40;;
14923;SDS011;7554;43.600;1.480;2023-06-22T13:14:23;8.13;;;2.85;;
14923;SDS011;7554;43.600;1.480;2023-06-22T13:16:51;2.88;;;2.08;;
14923;SDS011;7554;43.600;1.480;2023-06-22T13:19:18;2.70;;;2.30;;
14923;SDS011;7554;43.600;1.480;2023-06-22T13:21:45;5.63;;;2.45;;
14923;SDS011;7554;43.600;1.480;2023-06-22T13:24:12;2.53;;;1.95;;
14923;SDS011;7554;43.600;1.480;2023-06-22T13:26:40;2.60;;;2.30;;
14923;SDS011;7554;43.600;1.480;2023-06-22T13:29:07;4.15;;;2.58;;
14923;SDS011;7554;43.600;1.480;2023-06-22T13:31:36;4.03;;;2.35;;
14923;SDS011;7554;43.600;1.480;2023-06-22T13:34:04;3.85;;;2.33;;
14923;SDS011;7554;43.600;1.480;2023-06-22T13:36:31;4.75;;;2.25;;
14923;SDS011;7554;43.600;1.480;2023-06-22T13:38:59;4.18;;;2.60;;
14923;SDS011;7554;43.600;1.480;2023-06-22T13:41:26;4.20;;;2.42;;
14923;SDS011;7554;43.600;1.480;2023-06-22T13:43:53;6.22;;;2.53;;
14923;SDS011;7554;43.600;1.480;2023-06-22T13:46:21;4.15;;;2.28;;
14923;SDS011;7554;43.600;1.480;2023-06-22T13:48:50;3.67;;;2.60;;
14923;SDS011;7554;43.600;1.480;2023-06-22T13:51:17;11.75;;;3.35;;
14923;SDS011;7554;43.600;1.480;2023-06-22T13:53:44;4.82;;;2.70;;
14923;SDS011;7554;43.600;1.480;2023-06-22T13:56:12;55.35;;;4.65;;
14923;SDS011;7554;43.600;1.480;2023-06-22T13:58:39;7.78;;;2.33;;
14923;SDS011;7554;43.600;1.480;2023-06-22T14:01:06;7.18;;;2.63;;
14923;SDS011;7554;43.600;1.480;2023-06-22T14:03:33;2.53;;;2.20;;
14923;SDS011;7554;43.600;1.480;2023-06-22T14:06:02;5.00;;;2.92;;
14923;SDS011;7554;43.600;1.480;2023-06-22T14:08:30;5.65;;;2.30;;
14923;SDS011;7554;43.600;1.480;2023-06-22T14:10:57;8.27;;;2.80;;
14923;SDS011;7554;43.600;1.480;2023-06-22T14:13:24;6.63;;;2.78;;
14923;SDS011;7554;43.600;1.480;2023-06-22T14:15:51;4.40;;;2.65;;
14923;SDS011;7554;43.600;1.480;2023-06-22T14:18:19;4.47;;;2.70;;
14923;SDS011;7554;43.600;1.480;2023-06-22T14:20:47;4.32;;;2.75;;
14923;SDS011;7554;43.600;1.480;2023-06-22T14:23:16;4.43;;;2.53;;
14923;SDS011;7554;43.600;1.480;2023-06-22T14:25:43;4.78;;;2.85;;
14923;SDS011;7554;43.600;1.480;2023-06-22T14:28:11;11.20;;;3.20;;
14923;SDS011;7554;43.600;1.480;2023-06-22T14:30:38;6.93;;;3.22;;
14923;SDS011;7554;43.600;1.480;2023-06-22T14:33:05;4.97;;;2.50;;
14923;SDS011;7554;43.600;1.480;2023-06-22T14:35:32;5.50;;;2.90;;
14923;SDS011;7554;43.600;1.480;2023-06-22T14:38:00;5.63;;;2.70;;
14923;SDS011;7554;43.600;1.480;2023-06-22T14:40:28;4.15;;;2.50;;
14923;SDS011;7554;43.600;1.480;2023-06-22T14:42:56;3.78;;;2.70;;
14923;SDS011;7554;43.600;1.480;2023-06-22T14:45:23;4.43;;;3.22;;
14923;SDS011;7554;43.600;1.480;2023-06-22T14:47:51;5.15;;;3.00;;
14923;SDS011;7554;43.600;1.480;2023-06-22T14:50:18;9.32;;;3.50;;
14923;SDS011;7554;43.600;1.480;2023-06-22T14:52:46;5.40;;;2.85;;
14923;SDS011;7554;43.600;1.480;2023-06-22T14:55:14;4.90;;;3.17;;
14923;SDS011;7554;43.600;1.480;2023-06-22T14:57:43;5.65;;;3.20;;
14923;SDS011;7554;43.600;1.480;2023-06-22T15:00:10;3.95;;;2.67;;
14923;SDS011;7554;43.600;1.480;2023-06-22T15:02:38;6.03;;;2.90;;
14923;SDS011;7554;43.600;1.480;2023-06-22T15:05:07;4.82;;;2.97;;